Tiempo atmosférico en la estación meteorológica de Vandellós, Tarragona (22 m.)



Fecha
DESCASC
Temp. máxima en grados centígrados (hora)
DESCASC
Temp. mínima en grados centígrados (hora)
DESCASC
Temp. media en grados centígrados
DESCASC
Racha de viento máxima en m/sg (hora)
DESCASC
Velocidad máxima media en intervalos de 10 minutos(hora)
DESCASC
Precipitaciones diarias en mm
DESCASC
Precipitaciones de 00:00 a 06:00 en mm
DESCASC
Precipitaciones de 06:00 a 12:00 en mm
DESCASC
Precipitaciones de 12:00 a 18:00 en mm
DESCASC
Precipitaciones de 18:00 a 24:00 en mm
DESCASC
18-08-2019 30.7 (14:50) 25 (00:30) 27.9 5.56 (15:40) 2.5 (16:10) 0 0 0 0 0
17-08-2019 30.1 (15:20) 22.8 (05:40) 26.4 5.28 (15:30) 2.78 (13:10) 0 0 0 0 0
16-08-2019 29.9 (13:00) 23.5 (05:00) 26.7 6.11 (16:50) 3.06 (05:40) 0 0 0 0 0
15-08-2019 30.6 (13:00) 21.8 (00:00) 26.2 7.22 (15:40) 3.06 (14:30) 0 0 0 0 0
14-08-2019 30.1 (14:30) 21.3 (00:00) 25.7 15.56 (06:40) 7.78 (06:30) 0 0 0 0 0
13-08-2019 29.5 (15:30) 19.2 (00:00) 24.4 17.5 (03:00) 9.17 (05:40) 0 0 0 0 0
12-08-2019 31.2 (15:20) 21.9 (00:00) 26.6 15.83 (11:40) 7.5 (10:50) 0 0 0 0 0
11-08-2019 31 (14:10) 24.1 (00:00) 27.6 5.56 (01:00) 2.78 (13:20) 0 0 0 0 0
10-08-2019 31.7 (10:40) 25 (00:00) 28.4 15.56 (03:50) 8.61 (04:30) 0 0 0 0 0
09-08-2019 31.2 (14:30) 23.3 (00:00) 27.3 6.11 (15:50) 3.06 (16:50) 0 0 0 0 0
08-08-2019 32 (15:30) 24.1 (00:00) 28.1 6.94 (13:20) 3.33 (14:50) 0 0 0 0 0
07-08-2019 30.3 (13:20) 25.1 (00:00) 27.7 5 (11:30) 2.5 (11:30) 0 0 0 0 0
06-08-2019 31 (14:40) 23.6 (00:00) 27.3 5 (13:40) 2.5 (12:50) 0 0 0 0 0
05-08-2019 30.2 (14:40) 23.2 (00:00) 26.7 5 (14:20) 2.22 (14:20) 0 0 0 0 0
04-08-2019 30.2 (13:40) 22.8 (00:00) 26.5 5 (13:10) 2.5 (11:20) 0 0 0 0 0
03-08-2019 29.6 (15:40) 21.4 (00:00) 25.5 5.56 (13:20) 2.78 (12:30) 0 0 0 0 0
02-08-2019 31.9 (14:10) 21.8 (00:00) 26.8 7.22 (16:40) 2.78 (07:50) 0 0 0 0 0
01-08-2019 29.6 (14:30) 21.2 (00:00) 25.4 6.39 (14:30) 2.5 (19:30) 0 0 0 0 0
31-07-2019 29.1 (13:50) 22.3 (00:00) 25.7 9.72 (02:50) 5.28 (02:30) 0 0 0 0 0
30-07-2019 31.4 (14:10) 22.3 (00:00) 26.8 14.72 (09:50) 6.94 (07:10) 0 0 0 0 0
29-07-2019 29.2 (13:10) 19.2 (00:00) 24.2 6.67 (21:10) 3.33 (14:30) 0 0 0 0 0
28-07-2019 32.1 (16:40) 18.7 (00:00) 25.4 16.11 (02:50) 5 (02:50) 0 0 0 0 0
27-07-2019 33.2 (17:40) 22.2 (00:00) 27.7 15.28 (22:00) 6.11 (12:20) 0 0 0 0 0
26-07-2019 30.4 (14:10) 23.6 (00:00) 27 5.28 (12:50) 2.5 (11:00) 0.6 0 0 0.2 0.4
25-07-2019 30.9 (15:30) 22.7 (00:00) 26.8 4.72 (11:20) 2.5 (11:50) 0 0 0 0 0
24-07-2019 30.7 (16:00) 22.7 (00:00) 26.7 4.72 (16:00) 2.5 (16:10) 0 0 0 0 0

Gráficas

Temp. máximas Temp. mínimas Temp. medias Precipitaciones Rachas de viento máximas Velocidades máximas media en intervalos de 10 minutos

Datos horarios

Fecha y hora oficial Temperatura (ºC) Velocidad del viento (km/h) Dirección del viento Racha (km/h) Dirección de racha Precipitación (mm) Presión (hPa) Tendencia (hPa) Humedad (%)
2019-08-22 23:00:00 24.1 3 Noroeste 8 Sudoeste 0 -- -- 71
2019-08-22 22:00:00 24.5 4 Sudoeste 12 Sur 0 -- -- 69
2019-08-22 21:00:00 25 6 Sur 17 Sur 0 -- -- 65
2019-08-22 20:00:00 26.3 6 Sur 21 Sudoeste 0 -- -- 60
2019-08-22 19:00:00 27.1 8 Sur 24 Sur 0 -- -- 55
2019-08-22 18:00:00 28.3 8 Sur 24 Sur 0 -- -- 52
2019-08-22 17:00:00 28.5 9 Sur 22 Sur 0 -- -- 50
2019-08-22 16:00:00 28.1 9 Sur 21 Sur 0 -- -- 50
2019-08-22 15:00:00 28.8 7 Sudeste 23 Sur 0 -- -- 50
2019-08-22 14:00:00 29.4 9 Sudeste 18 Sudeste 0 -- -- 46
2019-08-22 13:00:00 29.3 8 Sudeste 16 Sudeste 0 -- -- 45
2019-08-22 12:00:00 29.1 5 Sudeste 21 Noroeste 0 -- -- 41
2019-08-22 11:00:00 27 4 Noroeste 22 Noroeste 0 -- -- 43
2019-08-22 10:00:00 25.1 10 Noroeste 30 Noroeste 0 -- -- 46
2019-08-22 09:00:00 23.8 12 Noroeste 23 Oeste 0 -- -- 49
2019-08-22 08:00:00 23.3 10 Noroeste 26 Noroeste 0 -- -- 52
2019-08-22 07:00:00 23 12 Noroeste 30 Noroeste 0 -- -- 55
2019-08-22 06:00:00 23.6 12 Noroeste 22 Noroeste 0 -- -- 58
2019-08-22 05:00:00 23.1 2 Noroeste 8 Nordeste 0 -- -- 80
2019-08-22 04:00:00 23 3 Norte 7 Nordeste 0 -- -- 78
2019-08-22 03:00:00 23.2 0 Calma 10 Noroeste 0 -- -- 73
2019-08-22 02:00:00 23.5 0 Calma 8 Norte 0 -- -- 73
2019-08-22 01:00:00 24.1 2 Nordeste 13 Norte 0 -- -- 70
2019-08-22 00:00:00 24.1 3 Norte 13 Norte 0 -- -- 71
2019-08-21 23:00:00 24.1 0 Calma 9 Sudoeste 0 -- -- 71
2019-08-21 22:00:00 24.3 0 Calma 9 Sur 0 -- -- 72
2019-08-21 21:00:00 24.6 5 Sudoeste 12 Sudoeste 0 -- -- 69
2019-08-21 20:00:00 25 4 Sur 16 Sudoeste 0 -- -- 65
2019-08-21 19:00:00 25 9 Sudoeste 25 Sudoeste 0 -- -- 66
2019-08-21 18:00:00 25.7 10 Sudoeste 27 Sudoeste 0 -- -- 63
2019-08-21 17:00:00 26.4 8 Sur 28 Sudoeste 0 -- -- 62
2019-08-21 16:00:00 26.9 8 Sur 24 Sur 0 -- -- 60
2019-08-21 15:00:00 28.3 9 Sur 27 Sur 0 -- -- 55
2019-08-21 14:00:00 28.9 12 Sur 28 Sur 0 -- -- 52
2019-08-21 13:00:00 29.5 5 Nordeste 24 Sudoeste 0 -- -- 43
2019-08-21 12:00:00 28.8 8 Sudoeste 25 Sudoeste 0 -- -- 44
2019-08-21 11:00:00 27.6 4 Sudeste 14 Nordeste 0 -- -- 47
2019-08-21 10:00:00 24.6 5 Este 10 Este 0 -- -- 59
2019-08-21 09:00:00 23.7 2 Sudeste 13 Sur 0 -- -- 60
2019-08-21 08:00:00 22.1 2 Nordeste 8 Este 0 -- -- 66
2019-08-21 07:00:00 22.1 2 Norte 26 Noroeste 0 -- -- 64
2019-08-21 06:00:00 22.4 7 Noroeste 16 Noroeste 0 -- -- 62
2019-08-21 05:00:00 21.8 0 Calma 4 Sudoeste 0 -- -- 64
2019-08-21 04:00:00 22.4 2 Sudoeste 6 Sudoeste 0 -- -- 65
2019-08-21 03:00:00 22.2 0 Calma 5 Sudoeste 0 -- -- 65
2019-08-21 02:00:00 22.7 0 Calma 6 Noroeste 0 -- -- 62
2019-08-21 01:00:00 23.4 2 Noroeste 7 Noroeste 0 -- -- 60
2019-08-21 00:00:00 22.7 2 Sudoeste 8 Noroeste 0 -- -- 63
2019-08-20 23:00:00 22.5 2 Noroeste 8 Noroeste 0 -- -- 63
2019-08-20 22:00:00 22.5 3 Norte 8 Noroeste 0 -- -- 61
2019-08-20 21:00:00 23.2 5 Noroeste 12 Noroeste 0 -- -- 59
2019-08-20 20:00:00 24.6 4 Noroeste 18 Noroeste 0 -- -- 54
2019-08-20 19:00:00 25.2 9 Noroeste 24 Noroeste 0 -- -- 53
2019-08-20 18:00:00 24.5 14 Noroeste 26 Noroeste 0 -- -- 56
2019-08-20 17:00:00 25.1 3 Norte 15 Nordeste 0 -- -- 52
2019-08-20 16:00:00 24.1 9 Noroeste 18 Norte 0 -- -- 54
2019-08-20 15:00:00 24.1 6 Norte 26 Oeste 0 -- -- 53
2019-08-20 14:00:00 23.9 2 Sudeste 31 Nordeste 0 -- -- 52
2019-08-20 13:00:00 22.2 10 Noroeste 34 Noroeste 0 -- -- 58
2019-08-20 12:00:00 23.5 17 Noroeste 42 Noroeste 0.1 -- -- 53
2019-08-20 11:00:00 23.6 12 Norte 24 Norte 0.1 -- -- 65
2019-08-20 10:00:00 23.7 10 Norte 25 Norte 0.1 -- -- 67
2019-08-20 09:00:00 23.2 7 Norte 21 Noroeste 0.1 -- -- 73
2019-08-20 08:00:00 23.2 11 Noroeste 22 Nordeste 0 -- -- 73
2019-08-20 07:00:00 23.4 10 Nordeste 25 Nordeste 0 -- -- 73
2019-08-20 06:00:00 24.2 9 Nordeste 26 Este 0 -- -- 78
2019-08-20 05:00:00 24.2 10 Nordeste 28 Este 0 -- -- 80
2019-08-20 04:00:00 24.1 11 Nordeste 28 Nordeste 0 -- -- 82
2019-08-20 03:00:00 24.1 11 Nordeste 27 Nordeste 0 -- -- 81
2019-08-20 02:00:00 24.1 10 Nordeste 25 Este 0 -- -- 82
2019-08-20 01:00:00 24.3 9 Nordeste 24 Nordeste 0 -- -- 83
2019-08-20 00:00:00 24.3 9 Nordeste 24 Este 0 -- -- 86
2019-08-19 23:00:00 24.5 10 Nordeste 28 Nordeste 0 -- -- 84
2019-08-19 22:00:00 24.7 8 Nordeste 19 Nordeste 0 -- -- 83
2019-08-19 21:00:00 24.6 8 Nordeste 22 Este 0 -- -- 81
2019-08-19 20:00:00 24.9 6 Nordeste 18 Este 0 -- -- 78
2019-08-19 19:00:00 25.3 7 Este 21 Nordeste 0 -- -- 77
2019-08-19 18:00:00 25.5 7 Nordeste 23 Este 0 -- -- 74
2019-08-19 17:00:00 25.8 6 Nordeste 21 Nordeste 0 -- -- 74
2019-08-19 16:00:00 26.7 7 Nordeste 23 Nordeste 0 -- -- 69
2019-08-19 15:00:00 27.8 10 Este 24 Nordeste 0 -- -- 65
2019-08-19 14:00:00 27.1 9 Este 25 Nordeste 0.1 -- -- 70
2019-08-19 13:00:00 26.6 8 Este 22 Este 0.1 -- -- 80
2019-08-19 12:00:00 28.8 8 Este 19 Este 0 -- -- 56
2019-08-19 11:00:00 27.8 4 Nordeste 17 Nordeste 0 -- -- 62
2019-08-19 10:00:00 26.4 6 Norte 14 Noroeste 0 -- -- 59
2019-08-19 09:00:00 25.3 9 Noroeste 24 Noroeste 0 -- -- 56
2019-08-19 08:00:00 24.9 14 Noroeste 22 Noroeste 0 -- -- 56
2019-08-19 07:00:00 24.4 9 Noroeste -- -- -- -- -- 53
2019-08-19 06:00:00 24.8 10 Noroeste 26 Noroeste 0 -- -- 53
2019-08-19 05:00:00 25.3 13 Noroeste 21 Noroeste 0 -- -- 56
2019-08-19 04:00:00 24.6 3 Norte 11 Norte 0 -- -- 82
2019-08-19 03:00:00 24.7 4 Norte 10 Noroeste 0 -- -- 84
2019-08-19 02:00:00 24.7 4 Norte 10 Nordeste 0 -- -- 86
2019-08-19 01:00:00 25.5 4 Norte 12 Nordeste 0 -- -- 85
2019-08-19 00:00:00 25.4 3 Nordeste 8 Nordeste 0 -- -- 85
2019-08-18 23:00:00 25.3 3 Nordeste 6 Nordeste 0 -- -- 85
2019-08-18 22:00:00 25.6 2 Nordeste 9 Sudeste 0 -- -- 82
2019-08-18 21:00:00 26.2 4 Este 12 Este 0 -- -- 80
2019-08-18 20:00:00 26.6 6 Sudeste 13 Sudeste 0 -- -- 77
2019-08-18 19:00:00 27.3 5 Sudeste 14 Este 0 -- -- 75
2019-08-18 18:00:00 28.6 5 Sudeste 15 Sur 0 -- -- 72
2019-08-18 17:00:00 29.1 7 Sudeste 18 Sur 0 -- -- 66
2019-08-18 16:00:00 29.6 8 Sudeste 20 Este 0 -- -- 65
2019-08-18 15:00:00 29.8 8 Sudeste 19 Sudeste 0 -- -- 64
2019-08-18 14:00:00 29.9 8 Sudeste 17 Sudeste 0 -- -- 63
2019-08-18 13:00:00 30.2 6 Este 15 Sudeste 0 -- -- 59
2019-08-18 12:00:00 29.7 5 Sudeste 18 Este 0 -- -- 57
2019-08-18 11:00:00 28.6 5 Sudeste 14 Sudeste 0 -- -- 64
2019-08-18 10:00:00 28 4 Este 13 Sudeste 0 -- -- 76
2019-08-18 09:00:00 26.2 5 Sudeste 12 Sur 0 -- -- 82
2019-08-18 08:00:00 25.7 3 Sudeste 10 Sudeste 0 -- -- 85
2019-08-18 07:00:00 25.4 3 Sudeste 13 Este 0 -- -- 85
2019-08-18 06:00:00 25.3 2 Sudeste 14 Sur 0 -- -- 87
2019-08-18 05:00:00 25.4 4 Sudeste 14 Sur 0 -- -- 88
2019-08-18 04:00:00 25.4 3 Sudeste 10 Sudeste 0 -- -- 88
2019-08-18 03:00:00 25.4 4 Sudeste 13 Este 0 -- -- 89
2019-08-18 02:00:00 25.2 4 Este 10 Este 0 -- -- 89
2019-08-18 01:00:00 25.2 2 Este 7 Nordeste 0 -- -- 88
2019-08-18 00:00:00 25.2 2 Este 7 Sudeste 0 -- -- 85
2019-08-17 23:00:00 25.3 2 Sudeste 6 Sudeste 0 -- -- 83
2019-08-17 22:00:00 25.5 3 Sudeste 8 Sudeste 0 -- -- 81
2019-08-17 21:00:00 25.9 2 Sur 9 Sudeste 0 -- -- 78
2019-08-17 20:00:00 26.6 4 Sudeste 13 Sudeste 0 -- -- 73
2019-08-17 19:00:00 27.4 6 Sudeste 15 Sudeste 0 -- -- 68
2019-08-17 18:00:00 28.7 6 Sudeste 18 Sur 0 -- -- 63
2019-08-17 17:00:00 29.2 6 Sur 19 Sudeste 0 -- -- 62
2019-08-17 16:00:00 29.6 7 Sudeste 19 Sur 0 -- -- 60
2019-08-17 15:00:00 29.7 8 Sudeste 18 Sudeste 0 -- -- 62
2019-08-17 14:00:00 29 8 Sudeste 19 Este 0 -- -- 62
2019-08-17 13:00:00 28.8 8 Sudeste 18 Este 0 -- -- 63
2019-08-17 12:00:00 28.9 7 Sudeste 19 Sudeste 0 -- -- 65
2019-08-17 11:00:00 28.4 6 Sudeste 14 Sudeste 0 -- -- 68
2019-08-17 10:00:00 25.3 2 Este 7 Nordeste 0 -- -- 81
2019-08-17 09:00:00 24.6 2 Nordeste 8 Nordeste 0 -- -- 82
2019-08-17 08:00:00 23.7 0 Calma 5 Nordeste 0 -- -- 86
2019-08-17 07:00:00 23.3 2 Nordeste 6 Norte 0 -- -- 88
2019-08-17 06:00:00 23 3 Norte 6 Nordeste 0 -- -- 88
2019-08-17 05:00:00 23 2 Norte 5 Norte 0 -- -- 88
2019-08-17 04:00:00 23 0 Calma 6 Nordeste 0 -- -- 87
2019-08-17 03:00:00 23.3 2 Nordeste 6 Nordeste 0 -- -- 85
2019-08-17 02:00:00 23.8 3 Nordeste 6 Norte 0 -- -- 83
2019-08-17 01:00:00 24.5 0 Calma 10 Sudoeste 0 -- -- 81
2019-08-17 00:00:00 25 6 Sudoeste 13 Sudoeste 0 -- -- 80
2019-08-16 23:00:00 25.1 6 Sudoeste 12 Sudoeste 0 -- -- 80
2019-08-16 22:00:00 25.5 5 Sudoeste 15 Sudoeste 0 -- -- 79
2019-08-16 21:00:00 26 4 Sur 16 Sudoeste 0 -- -- 73
2019-08-16 20:00:00 26.9 6 Sur 19 Sur 0 -- -- 66
2019-08-16 19:00:00 27.4 8 Sur 21 Sur 0 -- -- 61
2019-08-16 18:00:00 28 9 Sur 22 Sudeste 0 -- -- 64
2019-08-16 17:00:00 28.3 11 Sur 22 Sur 0 -- -- 62
2019-08-16 16:00:00 28.8 9 Sur 19 Sur 0 -- -- 61
2019-08-16 15:00:00 28.6 7 Sur 18 Sur 0 -- -- 61
2019-08-16 14:00:00 29.4 6 Sudeste 15 Sur 0 -- -- 55
2019-08-16 13:00:00 29.9 6 Sudeste 15 Este 0 -- -- 48
2019-08-16 12:00:00 28.2 7 Sudeste 14 Este 0 -- -- 52
2019-08-16 11:00:00 28.2 6 Sudeste 14 Sudeste 0 -- -- 52
2019-08-16 10:00:00 27.6 5 Este 12 Sudeste 0 -- -- 51
2019-08-16 09:00:00 26.4 4 Sudeste 9 Este 0 -- -- 53
2019-08-16 08:00:00 24.5 3 Este 9 Noroeste 0 -- -- 50
2019-08-16 07:00:00 24 2 Norte 14 Noroeste 0 -- -- 48
2019-08-16 06:00:00 24.8 9 Noroeste 18 Noroeste 0 -- -- 44
2019-08-16 05:00:00 24.1 5 Noroeste 11 Noroeste 0 -- -- 67
2019-08-16 04:00:00 24.2 0 Calma 6 Noroeste 0 -- -- 81
2019-08-16 03:00:00 24.7 0 Calma 3 Nordeste 0 -- -- 81
2019-08-16 02:00:00 25 0 Calma 4 Norte 0 -- -- 81
2019-08-16 01:00:00 24.4 0 Calma 6 Norte 0 -- -- 81
2019-08-16 00:00:00 24.6 0 Calma 4 Nordeste 0 -- -- 81
2019-08-15 23:00:00 25.1 0 Calma 7 Sudoeste 0 -- -- 78
2019-08-15 22:00:00 25.5 4 Sudoeste 20 Sudoeste 0 -- -- 74
2019-08-15 21:00:00 26.2 5 Sur 18 Sur 0 -- -- 72
2019-08-15 20:00:00 26.8 8 Sur 22 Sur 0 -- -- 69
2019-08-15 19:00:00 27.8 8 Sur 26 Sudeste 0 -- -- 65
2019-08-15 18:00:00 28.7 8 Sur 25 Sur 0 -- -- 61
2019-08-15 17:00:00 29.4 8 Sur 24 Sur 0 -- -- 64
2019-08-15 16:00:00 29.3 9 Sur 26 Sur 0 -- -- 65
2019-08-15 15:00:00 29.5 9 Sur 24 Sur 0 -- -- 62
2019-08-15 14:00:00 28.6 10 Sur 23 Sur 0 -- -- 62
2019-08-15 13:00:00 30.6 6 Sudeste 19 Este 0 -- -- 48
2019-08-15 12:00:00 29.7 7 Este 17 Sudeste 0 -- -- 46
2019-08-15 11:00:00 27.6 6 Este 15 Este 0 -- -- 50
2019-08-15 10:00:00 27 4 Este 13 Sur 0 -- -- 57
2019-08-15 09:00:00 25.8 2 Sur 18 Noroeste 0 -- -- 53
2019-08-15 08:00:00 23.3 3 Nordeste 8 Noroeste 0 -- -- 85
2019-08-15 07:00:00 22 0 Calma 6 Este 0 -- -- 83
2019-08-15 06:00:00 22.1 0 Calma 3 Noroeste 0 -- -- 86
2019-08-15 05:00:00 22.4 2 Norte 8 Noroeste 0 -- -- 82
2019-08-15 04:00:00 22.5 0 Calma 9 Norte 0 -- -- 85
2019-08-15 03:00:00 22.6 4 Norte 9 Nordeste 0 -- -- 84
2019-08-15 02:00:00 22.8 0 Calma 4 Norte 0 -- -- 84
2019-08-15 01:00:00 23.6 2 Norte 4 Norte 0 -- -- 82
2019-08-15 00:00:00 24.3 0 Calma 10 Sudoeste 0 -- -- 81
2019-08-14 23:00:00 24.5 4 Sudoeste 10 Sudoeste 0 -- -- 78
2019-08-14 22:00:00 25 5 Sudoeste 14 Sudoeste 0 -- -- 73
2019-08-14 21:00:00 25.7 6 Sudoeste 24 Sudoeste 0 -- -- 71
2019-08-14 20:00:00 27.3 6 Sur 23 Sudoeste 0 -- -- 67
2019-08-14 19:00:00 28.2 7 Sur 26 Sur 0 -- -- 66
2019-08-14 18:00:00 29 8 Sur 32 Sudoeste 0 -- -- 60
2019-08-14 17:00:00 29 8 Sur 25 Sur 0 -- -- 60
2019-08-14 16:00:00 29 8 Sur 26 Sur 0 -- -- 56
2019-08-14 15:00:00 28.6 9 Sur 27 Sur 0 -- -- 53
2019-08-14 14:00:00 29.1 7 Sur 25 Sur 0 -- -- 42
2019-08-14 13:00:00 28.9 9 Sur 26 Sur 0 -- -- 39
2019-08-14 12:00:00 28.2 6 Este 17 Este 0 -- -- 38
2019-08-14 11:00:00 28.2 5 Este 15 Este 0 -- -- 35
2019-08-14 10:00:00 26.2 6 Nordeste 26 Noroeste 0 -- -- 37
2019-08-14 09:00:00 24.8 9 Noroeste 48 Noroeste 0 -- -- 36
2019-08-14 08:00:00 23.2 20 Noroeste 46 Noroeste 0 -- -- 39
2019-08-14 07:00:00 22.9 24 Noroeste 56 Noroeste 0 -- -- 38
2019-08-14 06:00:00 22.6 25 Noroeste 48 Noroeste 0 -- -- 40
2019-08-14 05:00:00 23 8 Noroeste 30 Noroeste 0 -- -- 41
2019-08-14 04:00:00 23.1 6 Este 15 Noroeste 0 -- -- 41
2019-08-14 03:00:00 22.6 3 Oeste 18 Sudoeste 0 -- -- 41
2019-08-14 02:00:00 22.5 5 Sudoeste 15 Sudoeste 0 -- -- 44
2019-08-14 01:00:00 21.9 5 Sudoeste 15 Sudoeste 0 -- -- 59
2019-08-14 00:00:00 21.6 4 Sudoeste 9 Sudoeste 0 -- -- 68
2019-08-13 23:00:00 22.7 0 Calma 16 Oeste 0 -- -- 66
2019-08-13 22:00:00 22.9 5 Sudoeste 18 Sudoeste 0 -- -- 65
2019-08-13 21:00:00 24.1 5 Sudoeste 21 Sur 0 -- -- 61
2019-08-13 20:00:00 25.2 8 Sur 27 Sur 0 -- -- 56
2019-08-13 19:00:00 26 8 Sur 27 Sur 0 -- -- 51
2019-08-13 18:00:00 26.7 9 Sur 24 Sur 0 -- -- 48
2019-08-13 17:00:00 27.6 10 Sur 26 Sur 0 -- -- 47
2019-08-13 16:00:00 27.5 10 Sur 26 Sur 0 -- -- 41
2019-08-13 15:00:00 28.6 5 Este 24 Noroeste 0 -- -- 39
2019-08-13 14:00:00 27.5 6 Oeste 30 Sudoeste 0 -- -- 35
2019-08-13 13:00:00 26.1 12 Noroeste 32 Noroeste 0 -- -- 38
2019-08-13 12:00:00 24.9 18 Noroeste 45 Noroeste 0 -- -- 39
2019-08-13 11:00:00 23.5 23 Noroeste 50 Noroeste 0 -- -- 41
2019-08-13 10:00:00 21 28 Noroeste 48 Noroeste 0 -- -- 45
2019-08-13 09:00:00 20.4 27 Noroeste 58 Noroeste 0 -- -- 46
2019-08-13 08:00:00 19.5 31 Noroeste 58 Noroeste 0 -- -- 47
2019-08-13 07:00:00 19.5 30 Noroeste 61 Noroeste 0 -- -- 48
2019-08-13 06:00:00 19.5 32 Noroeste 60 Noroeste 0 -- -- 47
2019-08-13 05:00:00 19.7 31 Noroeste 57 Noroeste 0 -- -- 46
2019-08-13 04:00:00 20.1 26 Noroeste 61 Noroeste 0 -- -- 45
2019-08-13 03:00:00 21 32 Noroeste 63 Noroeste 0 -- -- 45
2019-08-13 02:00:00 21.7 22 Noroeste 49 Noroeste 0 -- -- 42
2019-08-13 01:00:00 22.4 24 Noroeste 55 Noroeste 0 -- -- 40
2019-08-13 00:00:00 23.2 26 Noroeste 51 Noroeste 0 -- -- 38
2019-08-12 23:00:00 24.8 18 Oeste 45 Oeste 0 -- -- 36
2019-08-12 22:00:00 26.3 21 Noroeste 37 Noroeste 0 -- -- 32
2019-08-12 21:00:00 27.7 12 Noroeste 33 Noroeste 0 -- -- 29
2019-08-12 20:00:00 29 11 Noroeste 24 Oeste 0 -- -- 30
2019-08-12 19:00:00 29.9 9 Noroeste 22 Noroeste 0 -- -- 31
2019-08-12 18:00:00 29.6 7 Sudeste 21 Sudeste 0 -- -- 43
2019-08-12 17:00:00 29.6 9 Sudeste 23 Sur 0 -- -- 41
2019-08-12 16:00:00 30.3 6 Sudeste 27 Noroeste 0 -- -- 38
2019-08-12 15:00:00 29.8 7 Oeste 37 Noroeste 0 -- -- 33
2019-08-12 14:00:00 27.6 18 Noroeste 41 Noroeste 0 -- -- 35
2019-08-12 13:00:00 27 18 Noroeste 50 Noroeste 0 -- -- 39
2019-08-12 12:00:00 24.4 23 Noroeste 57 Noroeste 0 -- -- 43
2019-08-12 11:00:00 22.6 26 Noroeste 52 Noroeste 0 -- -- 47
2019-08-12 10:00:00 22 24 Noroeste 50 Noroeste 0 -- -- 49
2019-08-12 09:00:00 22.1 22 Noroeste 43 Noroeste 0 -- -- 49
2019-08-12 08:00:00 22.1 15 Noroeste 43 Oeste 0 -- -- 49
2019-08-12 07:00:00 22.9 16 Noroeste 45 Oeste 0 -- -- 46
2019-08-12 06:00:00 23.7 17 Noroeste 51 Noroeste 0 -- -- 45
2019-08-12 05:00:00 24.2 22 Noroeste 48 Noroeste 0 -- -- 44
2019-08-12 04:00:00 24.5 3 Oeste 23 Noroeste 0 -- -- 47
2019-08-12 03:00:00 23.5 7 Norte 19 Noroeste 0 -- -- 66
2019-08-12 02:00:00 26.6 6 Noroeste 19 Este 0 -- -- 45
2019-08-12 01:00:00 26.5 7 Este 17 Este 0 -- -- 85
2019-08-12 00:00:00 26.5 3 Nordeste 10 Nordeste 0 -- -- 81
2019-08-11 23:00:00 27 4 Sudoeste 9 Sudoeste 0 -- -- 81
2019-08-11 22:00:00 27 4 Sudoeste 12 Sur 0 -- -- 83
2019-08-11 21:00:00 27.5 3 Sur 13 Sur 0 -- -- 79
2019-08-11 20:00:00 28.2 4 Sudeste 12 Sur 0 -- -- 75
2019-08-11 19:00:00 28.7 6 Sur 15 Sur 0 -- -- 71
2019-08-11 18:00:00 28.3 8 Sur 18 Sur 0 -- -- 64
2019-08-11 17:00:00 28.9 5 Sur 19 Sudeste 0 -- -- 68
2019-08-11 16:00:00 29.5 6 Sudeste 19 Sudeste 0 -- -- 63
2019-08-11 15:00:00 29.8 9 Sudeste 18 Sur 0 -- -- 57
2019-08-11 14:00:00 30.6 8 Sudeste 19 Este 0 -- -- 53
2019-08-11 13:00:00 30.1 8 Este 18 Este 0 -- -- 56
2019-08-11 12:00:00 29.1 7 Este 17 Este 0 -- -- 59
2019-08-11 11:00:00 27.5 5 Nordeste 15 Este 0 -- -- 65
2019-08-11 10:00:00 27.2 6 Nordeste 17 Nordeste 0 -- -- 69
2019-08-11 09:00:00 25.8 6 Norte 16 Norte 0 -- -- 74
2019-08-11 08:00:00 25 8 Norte 16 Nordeste 0 -- -- 77
2019-08-11 07:00:00 24.9 7 Norte 18 Nordeste 0 -- -- 77
2019-08-11 06:00:00 24.9 6 Nordeste 15 Norte 0 -- -- 74
2019-08-11 05:00:00 24.3 5 Nordeste 14 Nordeste 0 -- -- 79
2019-08-11 04:00:00 24.6 4 Nordeste 12 Nordeste 0 -- -- 84
2019-08-11 03:00:00 25.2 6 Nordeste 17 Norte 0 -- -- 82
2019-08-11 02:00:00 25.5 7 Nordeste 19 Nordeste 0 -- -- 82
2019-08-11 01:00:00 25.7 9 Nordeste 20 Nordeste 0 -- -- 82
2019-08-11 00:00:00 25.7 6 Nordeste 14 Nordeste 0 -- -- 82
2019-08-10 23:00:00 25.8 5 Nordeste 12 Este 0 -- -- 81
2019-08-10 22:00:00 26.1 3 Nordeste 11 Nordeste 0 -- -- 80
2019-08-10 21:00:00 26.6 4 Nordeste 11 Nordeste 0 -- -- 77
2019-08-10 20:00:00 27.8 4 Nordeste 13 Este 0 -- -- 72
2019-08-10 19:00:00 28.3 4 Este 13 Este 0 -- -- 69
2019-08-10 18:00:00 29.9 6 Este 15 Este 0 -- -- 62
2019-08-10 17:00:00 30.1 6 Sudeste 15 Este 0 -- -- 58
2019-08-10 16:00:00 31 6 Este 15 Sudeste 0 -- -- 59
2019-08-10 15:00:00 30.2 6 Sudeste 15 Este 0 -- -- 63
2019-08-10 14:00:00 30.7 9 Sudeste 18 Sudeste 0 -- -- 59
2019-08-10 13:00:00 31 8 Este 21 Este 0 -- -- 60
2019-08-10 12:00:00 31.1 10 Este 21 Este 0 -- -- 61
2019-08-10 11:00:00 29.8 7 Este 21 Este 0 -- -- 63
2019-08-10 10:00:00 30.1 2 Norte 24 Norte 0 -- -- 36
2019-08-10 09:00:00 28.6 6 Norte 27 Noroeste 0 -- -- 37
2019-08-10 08:00:00 27.8 7 Nordeste 33 Noroeste 0 -- -- 40
2019-08-10 07:00:00 28.4 12 Noroeste 37 Noroeste 0 -- -- 40
2019-08-10 06:00:00 29.2 16 Noroeste 50 Noroeste 0 -- -- 38
2019-08-10 05:00:00 30.2 27 Noroeste 53 Noroeste 0 -- -- 39
2019-08-10 04:00:00 30.4 24 Noroeste 56 Norte 0 -- -- 41
2019-08-10 03:00:00 29.1 0 Calma 39 Norte 0 -- -- 49
2019-08-10 02:00:00 26.1 5 Sudeste 14 Sudeste 0 -- -- 86
2019-08-10 01:00:00 25.2 0 Calma 6 Oeste 0 -- -- 77
2019-08-10 00:00:00 26 0 Calma 5 Sudoeste 0 -- -- 88
2019-08-09 23:00:00 26.4 0 Calma 6 Este 0 -- -- 88
2019-08-09 22:00:00 27 3 Nordeste 13 Nordeste 0 -- -- 84
2019-08-09 21:00:00 27.7 0 Calma 11 Sur 0 -- -- 78
2019-08-09 20:00:00 28.8 5 Sur 15 Sudeste 0 -- -- 76
2019-08-09 19:00:00 29.8 8 Sur 20 Sur 0 -- -- 68
2019-08-09 18:00:00 30 9 Sur 20 Sur 0 -- -- 71
2019-08-09 17:00:00 30.3 9 Sur 21 Sur 0 -- -- 71
2019-08-09 16:00:00 30.1 10 Sur 22 Sudeste 0 -- -- 69
2019-08-09 15:00:00 30.6 9 Sur 20 Sudeste 0 -- -- 68
2019-08-09 14:00:00 30.3 8 Sudeste 17 Sur 0 -- -- 67
2019-08-09 13:00:00 30.3 7 Este 14 Este 0 -- -- 66
2019-08-09 12:00:00 29.8 4 Este 13 Sudeste 0 -- -- 66
2019-08-09 11:00:00 28.6 5 Este 13 Este 0 -- -- 71
2019-08-09 10:00:00 27.5 7 Este 14 Este 0 -- -- 75
2019-08-09 09:00:00 26.8 3 Este 6 Este 0 -- -- 81
2019-08-09 08:00:00 24.8 2 Nordeste 6 Nordeste 0 -- -- 84
2019-08-09 07:00:00 23.5 0 Calma 4 Nordeste 0 -- -- 89
2019-08-09 06:00:00 23.6 0 Calma 4 Noroeste 0 -- -- 88
2019-08-09 05:00:00 23.7 0 Calma 4 Nordeste 0 -- -- 89
2019-08-09 04:00:00 23.8 0 Calma 0 Calma 0 -- -- 88
2019-08-09 03:00:00 23.9 0 Calma 3 Sudoeste 0 -- -- 85
2019-08-09 02:00:00 24.3 0 Calma 4 Norte 0 -- -- 77
2019-08-09 01:00:00 24.9 0 Calma 4 Noroeste 0 -- -- 80
2019-08-09 00:00:00 25.6 0 Calma 4 Norte 0 -- -- 76
2019-08-08 23:00:00 26.4 0 Calma 5 Sur 0 -- -- 75
2019-08-08 22:00:00 27.1 0 Calma 10 Sur 0 -- -- 71
2019-08-08 21:00:00 27.9 5 Sur 14 Sur 0 -- -- 69
2019-08-08 20:00:00 29.2 5 Sur 17 Sur 0 -- -- 62
2019-08-08 19:00:00 29.9 8 Sur 19 Sur 0 -- -- 64
2019-08-08 18:00:00 30.8 8 Sur 20 Sur 0 -- -- 62
2019-08-08 17:00:00 30.6 8 Sur 23 Sur 0 -- -- 61
2019-08-08 16:00:00 31 8 Sur 22 Sur 0 -- -- 60
2019-08-08 15:00:00 31.1 9 Sur 23 Sur 0 -- -- 63
2019-08-08 14:00:00 30.3 9 Sur 25 Sur 0 -- -- 64
2019-08-08 13:00:00 30 9 Sur 21 Sur 0 -- -- 69
2019-08-08 12:00:00 31 8 Sudeste 19 Sudeste 0 -- -- 55
2019-08-08 11:00:00 30.6 9 Este 16 Este 0 -- -- 51
2019-08-08 10:00:00 28.3 7 Sudeste 15 Sudeste 0 -- -- 64
2019-08-08 09:00:00 26.6 4 Este 9 Este 0 -- -- 83
2019-08-08 08:00:00 25.1 0 Calma 5 Nordeste 0 -- -- 89
2019-08-08 07:00:00 24.1 0 Calma 4 Nordeste 0 -- -- 89
2019-08-08 06:00:00 24.8 0 Calma 8 Sudoeste 0 -- -- 89
2019-08-08 05:00:00 25.4 4 Sudoeste 9 Sudoeste 0 -- -- 89
2019-08-08 04:00:00 25.7 4 Sudoeste 8 Sudoeste 0 -- -- 86
2019-08-08 03:00:00 26 4 Sudoeste 10 Sudoeste 0 -- -- 85
2019-08-08 02:00:00 26 5 Sudoeste 9 Sudoeste 0 -- -- 81
2019-08-08 01:00:00 26.2 3 Sudeste 11 Sur 0 -- -- 84
2019-08-08 00:00:00 26.2 0 Calma 4 Norte 0 -- -- 83
2019-08-07 23:00:00 26 0 Calma 8 Nordeste 0 -- -- 83
2019-08-07 22:00:00 26.2 2 Nordeste 6 Nordeste 0 -- -- 81
2019-08-07 21:00:00 27 2 Este 6 Sudeste 0 -- -- 77
2019-08-07 20:00:00 27.5 4 Sur 10 Sur 0 -- -- 75
2019-08-07 19:00:00 27.8 3 Este 9 Este 0 -- -- 73
2019-08-07 18:00:00 28.2 4 Sudeste 10 Sur 0 -- -- 70
2019-08-07 17:00:00 28.8 5 Sudeste 15 Sur 0 -- -- 68
2019-08-07 16:00:00 29.3 4 Este 12 Este 0 -- -- 66
2019-08-07 15:00:00 29 3 Sudeste 12 Este 0 -- -- 65
2019-08-07 14:00:00 29.2 5 Este 14 Sudeste 0 -- -- 67
2019-08-07 13:00:00 29.8 6 Este 17 Este 0 -- -- 67
2019-08-07 12:00:00 28.4 5 Nordeste 18 Este 0 -- -- 72
2019-08-07 11:00:00 28.3 5 Este 18 Este 0 -- -- 72
2019-08-07 10:00:00 27.7 6 Este 13 Este 0 -- -- 73
2019-08-07 09:00:00 26.3 5 Norte 12 Norte 0 -- -- 78
2019-08-07 08:00:00 25.3 5 Nordeste 15 Norte 0 -- -- 84
2019-08-07 07:00:00 25.2 5 Nordeste 12 Nordeste 0 -- -- 84
2019-08-07 06:00:00 25.5 4 Nordeste 9 Nordeste 0 -- -- 85
2019-08-07 05:00:00 25.8 4 Norte 9 Norte 0 -- -- 82
2019-08-07 04:00:00 25.5 4 Nordeste 9 Norte 0 -- -- 85
2019-08-07 03:00:00 25.9 0 Calma 10 Sudeste 0 -- -- 85
2019-08-07 02:00:00 25.6 2 Sudeste 7 Sudeste 0 -- -- 86
2019-08-07 01:00:00 25.5 2 Sudeste 8 Sudoeste 0 -- -- 86
2019-08-07 00:00:00 25.6 4 Sudoeste 9 Sudoeste 0 -- -- 84
2019-08-06 23:00:00 26.1 4 Sudoeste 12 Sudoeste 0 -- -- 80
2019-08-06 22:00:00 26.1 3 Sur 8 Sur 0 -- -- 79
2019-08-06 21:00:00 26.7 2 Sur 8 Sudeste 0 -- -- 73
2019-08-06 20:00:00 27.8 3 Sudeste 13 Sudeste 0 -- -- 70
2019-08-06 19:00:00 28.4 6 Sur 15 Sur 0 -- -- 66
2019-08-06 18:00:00 28.7 4 Sur 14 Este 0 -- -- 61
2019-08-06 17:00:00 29.6 4 Sudeste 15 Sur 0 -- -- 63
2019-08-06 16:00:00 30.1 5 Sudeste 15 Sudeste 0 -- -- 61
2019-08-06 15:00:00 30.1 6 Este 16 Sudeste 0 -- -- 59
2019-08-06 14:00:00 29.5 7 Este 18 Este 0 -- -- 67
2019-08-06 13:00:00 29.4 6 Este 17 Este 0 -- -- 65
2019-08-06 12:00:00 28.1 8 Este 17 Este 0 -- -- 68
2019-08-06 11:00:00 27.9 7 Nordeste 17 Este 0 -- -- 68
2019-08-06 10:00:00 26.3 6 Nordeste 15 Nordeste 0 -- -- 74
2019-08-06 09:00:00 25.7 5 Nordeste 16 Nordeste 0 -- -- 78
2019-08-06 08:00:00 24.8 7 Nordeste 15 Nordeste 0 -- -- 84
2019-08-06 07:00:00 24.3 6 Norte 14 Nordeste 0 -- -- 81
2019-08-06 06:00:00 24.2 4 Nordeste 9 Norte 0 -- -- 84
2019-08-06 05:00:00 23.8 3 Norte 8 Nordeste 0 -- -- 85
2019-08-06 04:00:00 24 5 Nordeste 9 Nordeste 0 -- -- 82
2019-08-06 03:00:00 24.6 2 Nordeste 5 Sudeste 0 -- -- 82
2019-08-06 02:00:00 25.1 0 Calma 8 Sur 0 -- -- 81
2019-08-06 01:00:00 25.2 4 Sur 9 Sur 0 -- -- 79
2019-08-06 00:00:00 24.3 0 Calma 4 Norte 0 -- -- 72
2019-08-05 23:00:00 24.9 0 Calma 3 Sudoeste 0 -- -- 75
2019-08-05 22:00:00 25.7 3 Sur 6 Sur 0 -- -- 74
2019-08-05 21:00:00 26.5 2 Sur 6 Sudeste 0 -- -- 68
2019-08-05 20:00:00 27.3 3 Sudeste 12 Este 0 -- -- 65
2019-08-05 19:00:00 28.5 6 Este 12 Este 0 -- -- 62
2019-08-05 18:00:00 29.1 4 Sudeste 14 Sur 0 -- -- 59
2019-08-05 17:00:00 28.9 7 Sur 15 Sudeste 0 -- -- 61
2019-08-05 16:00:00 29.5 8 Sur 18 Sudeste 0 -- -- 60
2019-08-05 15:00:00 29.7 5 Sudeste 18 Sur 0 -- -- 59
2019-08-05 14:00:00 28.9 6 Sur 16 Sudeste 0 -- -- 62
2019-08-05 13:00:00 29.2 7 Sudeste 16 Sudeste 0 -- -- 63
2019-08-05 12:00:00 28.5 7 Sudeste 14 Este 0 -- -- 64
2019-08-05 11:00:00 27.5 7 Este 15 Sudeste 0 -- -- 69
2019-08-05 10:00:00 26.7 6 Este 17 Este 0 -- -- 73
2019-08-05 09:00:00 26 6 Este 14 Este 0 -- -- 77
2019-08-05 08:00:00 24.4 4 Nordeste 9 Nordeste 0 -- -- 84
2019-08-05 07:00:00 23.3 3 Norte 8 Norte 0 -- -- 89
2019-08-05 06:00:00 23.5 3 Norte 8 Nordeste 0 -- -- 89
2019-08-05 05:00:00 23.4 3 Norte 9 Nordeste 0 -- -- 90
2019-08-05 04:00:00 23.8 3 Norte 6 Norte 0 -- -- 87
2019-08-05 03:00:00 24.2 0 Calma 4 Norte 0 -- -- 84
2019-08-05 02:00:00 24.4 2 Nordeste 6 Norte 0 -- -- 81
2019-08-05 01:00:00 24.3 2 Norte 5 Norte 0 -- -- 77
2019-08-05 00:00:00 24.8 0 Calma 4 Nordeste 0 -- -- 76
2019-08-04 23:00:00 25.1 0 Calma 2 Nordeste 0 -- -- 76
2019-08-04 22:00:00 25.7 0 Calma 5 Este 0 -- -- 74
2019-08-04 21:00:00 26.2 0 Calma 8 Este 0 -- -- 71
2019-08-04 20:00:00 26.8 2 Este 10 Nordeste 0 -- -- 66
2019-08-04 19:00:00 28 4 Este 13 Este 0 -- -- 60
2019-08-04 18:00:00 28.5 4 Sudeste 14 Este 0 -- -- 60
2019-08-04 17:00:00 29.3 4 Sur 15 Sur 0 -- -- 62
2019-08-04 16:00:00 28.5 7 Sur 18 Sur 0 -- -- 63
2019-08-04 15:00:00 28.9 7 Sur 18 Sur 0 -- -- 62
2019-08-04 14:00:00 29.9 7 Sudeste 18 Este 0 -- -- 56
2019-08-04 13:00:00 29.3 5 Este 14 Este 0 -- -- 65
2019-08-04 12:00:00 28.6 5 Este 16 Este 0 -- -- 69
2019-08-04 11:00:00 26.7 7 Este 15 Este 0 -- -- 74
2019-08-04 10:00:00 26.6 6 Este 14 Este 0 -- -- 74
2019-08-04 09:00:00 25.9 6 Este 13 Este 0 -- -- 77
2019-08-04 08:00:00 23.8 4 Nordeste 9 Norte 0 -- -- 86
2019-08-04 07:00:00 22.9 5 Nordeste 9 Nordeste 0 -- -- 89
2019-08-04 06:00:00 23 4 Norte 10 Norte 0 -- -- 86
2019-08-04 05:00:00 23.8 2 Nordeste 5 Norte 0 -- -- 85
2019-08-04 04:00:00 24.6 2 Sudeste 8 Sur 0 -- -- 83
2019-08-04 03:00:00 24.7 3 Sur 11 Sur 0 -- -- 82
2019-08-04 02:00:00 24.9 4 Sudeste 12 Sudeste 0 -- -- 82
2019-08-04 01:00:00 24.9 4 Sur 9 Sudeste 0 -- -- 83
2019-08-04 00:00:00 25.1 4 Sur 9 Sur 0 -- -- 81
2019-08-03 23:00:00 25.6 0 Calma 11 Oeste 0 -- -- 72
2019-08-03 22:00:00 26.1 5 Sudoeste 12 Sudoeste 0 -- -- 67
2019-08-03 21:00:00 26.5 4 Sudeste 9 Sur 0 -- -- 64
2019-08-03 20:00:00 27 2 Sur 10 Este 0 -- -- 61
2019-08-03 19:00:00 28.3 4 Sudeste 13 Este 0 -- -- 62
2019-08-03 18:00:00 28.6 6 Sudeste 13 Sur 0 -- -- 64
2019-08-03 17:00:00 29.1 4 Sur 14 Este 0 -- -- 62
2019-08-03 16:00:00 28.8 5 Sudeste 16 Sur 0 -- -- 63
2019-08-03 15:00:00 28.6 7 Sudeste 16 Sudeste 0 -- -- 62
2019-08-03 14:00:00 28.2 5 Sudeste 20 Sur 0 -- -- 61
2019-08-03 13:00:00 27.8 9 Sur 19 Sudeste 0 -- -- 63
2019-08-03 12:00:00 27.6 8 Sur 18 Sur 0 -- -- 63
2019-08-03 11:00:00 28 4 Sur 15 Sur 0 -- -- 61
2019-08-03 10:00:00 27 6 Sudeste 14 Sudeste 0 -- -- 63
2019-08-03 09:00:00 25 6 Sur 12 Sur 0 -- -- 69
2019-08-03 08:00:00 22.6 0 Calma 4 Noroeste 0 -- -- 70
2019-08-03 07:00:00 21.7 0 Calma 8 Noroeste 0 -- -- 70
2019-08-03 06:00:00 21.4 0 Calma 4 Oeste 0 -- -- 69
2019-08-03 05:00:00 21.4 0 Calma 3 Norte 0 -- -- 70
2019-08-03 04:00:00 21.8 0 Calma 2 Norte 0 -- -- 68
2019-08-03 03:00:00 22.2 0 Calma 5 Noroeste 0 -- -- 66
2019-08-03 02:00:00 22.7 0 Calma 3 Norte 0 -- -- 65
2019-08-03 01:00:00 23 0 Calma 3 Norte 0 -- -- 66
2019-08-03 00:00:00 23.8 0 Calma 7 Noroeste 0 -- -- 66
2019-08-02 23:00:00 24.8 4 Sudoeste 7 Sudoeste 0 -- -- 69
2019-08-02 22:00:00 25.3 2 Sur 10 Sur 0 -- -- 67
2019-08-02 21:00:00 25.9 4 Sur 11 Sudeste 0 -- -- 64
2019-08-02 20:00:00 27 5 Sur 14 Sur 0 -- -- 57
2019-08-02 19:00:00 28.6 6 Sur 18 Sur 0 -- -- 53
2019-08-02 18:00:00 29.8 8 Sur 24 Sur 0 -- -- 49
2019-08-02 17:00:00 30.3 7 Sur 26 Sur 0 -- -- 44
2019-08-02 16:00:00 30.5 8 Sur 23 Sudoeste 0 -- -- 41
2019-08-02 15:00:00 30.5 9 Sur 21 Sur 0 -- -- 41
2019-08-02 14:00:00 31.1 8 Sur 18 Sur 0 -- -- 40
2019-08-02 13:00:00 30.4 6 Sudeste 18 Sur 0 -- -- 42
2019-08-02 12:00:00 30.7 8 Sudeste 13 Este 0 -- -- 35
2019-08-02 11:00:00 29.8 6 Sudeste 12 Sudeste 0 -- -- 39
2019-08-02 10:00:00 28.8 4 Sudeste 13 Este 0 -- -- 42
2019-08-02 09:00:00 26.7 5 Noroeste 18 Noroeste 0 -- -- 45
2019-08-02 08:00:00 25.1 10 Noroeste 17 Noroeste 0 -- -- 50
2019-08-02 07:00:00 24 5 Noroeste 12 Noroeste 0 -- -- 49
2019-08-02 06:00:00 24.5 8 Noroeste 15 Oeste 0 -- -- 43
2019-08-02 05:00:00 23.1 5 Norte 12 Norte 0 -- -- 52
2019-08-02 04:00:00 23 3 Nordeste 10 Nordeste 0 -- -- 63
2019-08-02 03:00:00 23.1 3 Nordeste 11 Norte 0 -- -- 61
2019-08-02 02:00:00 22.8 3 Nordeste 8 Nordeste 0 -- -- 60
2019-08-02 01:00:00 22.6 3 Norte 7 Nordeste 0 -- -- 63
2019-08-02 00:00:00 22.8 3 Nordeste 9 Norte 0 -- -- 78
2019-08-01 23:00:00 23.3 4 Nordeste 9 Norte 0 -- -- 78
2019-08-01 22:00:00 24 4 Nordeste 13 Nordeste 0 -- -- 75
2019-08-01 21:00:00 24.7 3 Este 15 Este 0 -- -- 69
2019-08-01 20:00:00 25.8 8 Nordeste 17 Nordeste 0 -- -- 63
2019-08-01 19:00:00 27 7 Nordeste 16 Este 0 -- -- 58
2019-08-01 18:00:00 27.3 6 Este 14 Este 0 -- -- 55
2019-08-01 17:00:00 27.9 4 Este 13 Nordeste 0 -- -- 55
2019-08-01 16:00:00 27.8 6 Este 17 Este 0 -- -- 52
2019-08-01 15:00:00 28.2 8 Este 23 Este 0 -- -- 51
2019-08-01 14:00:00 27.6 8 Nordeste 17 Nordeste 0 -- -- 51
2019-08-01 13:00:00 27.9 6 Nordeste 15 Nordeste 0 -- -- 53
2019-08-01 12:00:00 27.1 5 Este 17 Este 0 -- -- 54
2019-08-01 11:00:00 26.6 4 Nordeste 17 Norte 0 -- -- 60
2019-08-01 10:00:00 26.2 4 Este 13 Este 0 -- -- 61
2019-08-01 09:00:00 24.7 5 Nordeste 12 Este 0 -- -- 63
2019-08-01 08:00:00 22.8 3 Nordeste 10 Norte 0 -- -- 73
2019-08-01 07:00:00 21.2 2 Nordeste 9 Norte 0 -- -- 81
2019-08-01 06:00:00 21.3 4 Norte 9 Nordeste 0 -- -- 81
2019-08-01 05:00:00 21.8 3 Norte 13 Norte 0 -- -- 79
2019-08-01 04:00:00 23 5 Nordeste 15 Norte 0 -- -- 77
2019-08-01 03:00:00 23 6 Nordeste 14 Nordeste 0 -- -- 77
2019-08-01 02:00:00 23.5 4 Este 14 Nordeste 0 -- -- 76
2019-08-01 01:00:00 23.3 2 Nordeste 9 Nordeste 0 -- -- 74
2019-08-01 00:00:00 23.7 3 Este 8 Este 0 -- -- 74
2019-07-31 23:00:00 23.5 2 Nordeste 8 Nordeste 0 -- -- 74
2019-07-31 22:00:00 23.5 3 Nordeste 10 Nordeste 0 -- -- 73
2019-07-31 21:00:00 24.2 3 Este 10 Este 0 -- -- 70
2019-07-31 20:00:00 25 4 Este 12 Este 0 -- -- 69
2019-07-31 19:00:00 25.7 4 Este 14 Este 0 -- -- 65
2019-07-31 18:00:00 25.7 6 Este 16 Este 0 -- -- 64
2019-07-31 17:00:00 26.2 5 Este 19 Este 0 -- -- 65
2019-07-31 16:00:00 26.8 9 Este 22 Este 0 -- -- 63
2019-07-31 15:00:00 27.3 9 Este 22 Este 0 -- -- 57
2019-07-31 14:00:00 27.4 5 Este 26 Este 0 -- -- 51
2019-07-31 13:00:00 27.6 4 Este 13 Sur 0 -- -- 49
2019-07-31 12:00:00 26.1 4 Sudeste 15 Este 0 -- -- 49
2019-07-31 11:00:00 26.9 4 Nordeste 18 Nordeste 0 -- -- 47
2019-07-31 10:00:00 25.7 0 Calma 16 Noroeste 0 -- -- 45
2019-07-31 09:00:00 23.7 12 Noroeste 24 Noroeste 0 -- -- 46
2019-07-31 08:00:00 23 15 Noroeste 26 Noroeste 0 -- -- 45
2019-07-31 07:00:00 22.6 14 Noroeste 32 Noroeste 0 -- -- 43
2019-07-31 06:00:00 22.4 18 Noroeste 32 Noroeste 0 -- -- 42
2019-07-31 05:00:00 23.4 15 Noroeste 30 Noroeste 0 -- -- 41
2019-07-31 04:00:00 23.4 15 Noroeste 35 Noroeste 0 -- -- 41
2019-07-31 03:00:00 23.7 18 Noroeste 35 Noroeste 0 -- -- 38
2019-07-31 02:00:00 24.5 4 Noroeste 19 Noroeste 0 -- -- 41
2019-07-31 01:00:00 23.6 0 Calma 5 Norte 0 -- -- 76
2019-07-31 00:00:00 24 2 Nordeste 5 Norte 0 -- -- 76
2019-07-30 23:00:00 24.7 0 Calma 5 Este 0 -- -- 75
2019-07-30 22:00:00 25.1 0 Calma 8 Sur 0 -- -- 73
2019-07-30 21:00:00 25.7 3 Sur 13 Sur 0 -- -- 67
2019-07-30 20:00:00 27.1 4 Sur 14 Sudoeste 0 -- -- 59
2019-07-30 19:00:00 28.2 5 Sudoeste 15 Sudeste 0 -- -- 54
2019-07-30 18:00:00 28.9 6 Sur 19 Sudeste 0 -- -- 51
2019-07-30 17:00:00 29.7 6 Este 20 Sudeste 0 -- -- 46
2019-07-30 16:00:00 30.7 7 Sudeste 19 Sudeste 0 -- -- 45
2019-07-30 15:00:00 30 9 Sudeste 18 Sudeste 0 -- -- 42
2019-07-30 14:00:00 30.4 8 Noroeste 33 Noroeste 0 -- -- 34
2019-07-30 13:00:00 28.9 14 Noroeste 36 Noroeste 0 -- -- 36
2019-07-30 12:00:00 27.2 17 Noroeste 39 Noroeste 0 -- -- 40
2019-07-30 11:00:00 25.4 22 Noroeste 43 Noroeste 0 -- -- 42
2019-07-30 10:00:00 24 21 Noroeste 53 Noroeste 0 -- -- 46
2019-07-30 09:00:00 22.9 24 Noroeste 49 Noroeste 0 -- -- 49
2019-07-30 08:00:00 22.4 24 Noroeste 49 Noroeste 0 -- -- 50
2019-07-30 07:00:00 22.8 25 Noroeste 47 Noroeste 0 -- -- 49
2019-07-30 06:00:00 23.3 19 Noroeste 42 Noroeste 0 -- -- 49
2019-07-30 05:00:00 24.2 15 Noroeste 28 Noroeste 0 -- -- 49
2019-07-30 04:00:00 23.9 2 Nordeste 6 Nordeste 0 -- -- 85
2019-07-30 03:00:00 24.1 0 Calma 8 Sudoeste 0 -- -- 85
2019-07-30 02:00:00 24 0 Calma 0 Calma 0 -- -- 85
2019-07-30 01:00:00 24.6 0 Calma 3 Sudeste 0 -- -- 84
2019-07-30 00:00:00 25 0 Calma 5 Sur 0 -- -- 83
2019-07-29 23:00:00 25 0 Calma 8 Sudoeste 0 -- -- 81
2019-07-29 22:00:00 25.6 0 Calma 24 Sudoeste 0 -- -- 78
2019-07-29 21:00:00 26.2 5 Sur 17 Sur 0 -- -- 73
2019-07-29 20:00:00 26.9 6 Sur 19 Sudeste 0 -- -- 68
2019-07-29 19:00:00 27.6 7 Sur 18 Sur 0 -- -- 68
2019-07-29 18:00:00 28.7 6 Sur 19 Sur 0 -- -- 69
2019-07-29 17:00:00 27.8 9 Sur 18 Sur 0 -- -- 69
2019-07-29 16:00:00 28.1 8 Sur 19 Sur 0 -- -- 67
2019-07-29 15:00:00 27.8 11 Sur 19 Sudeste 0 -- -- 65
2019-07-29 14:00:00 28.1 6 Sudeste 15 Sudeste 0 -- -- 59
2019-07-29 13:00:00 28.8 4 Sudeste 12 Sudeste 0 -- -- 51
2019-07-29 12:00:00 27.5 6 Sudeste 12 Este 0 -- -- 51
2019-07-29 11:00:00 26.1 6 Este 14 Nordeste 0 -- -- 59
2019-07-29 10:00:00 25.1 5 Este 11 Este 0 -- -- 61
2019-07-29 09:00:00 23.8 5 Este 9 Este 0 -- -- 64
2019-07-29 08:00:00 21.8 0 Calma 7 Sudoeste 0 -- -- 62
2019-07-29 07:00:00 19.2 0 Calma 6 Nordeste 0 -- -- 62
2019-07-29 06:00:00 20 0 Calma 4 Sudoeste 0 -- -- 60
2019-07-29 05:00:00 20 2 Norte 8 Nordeste 0 -- -- 61
2019-07-29 04:00:00 20.6 4 Nordeste 8 Nordeste 0 -- -- 59
2019-07-29 03:00:00 21.9 4 Nordeste 8 Nordeste 0 -- -- 56
2019-07-29 02:00:00 22.5 2 Nordeste 13 Sudoeste 0 -- -- 55
2019-07-29 01:00:00 24.6 9 Sudoeste 22 Oeste 0 -- -- 51
2019-07-29 00:00:00 23.6 7 Sudoeste 17 Sudoeste 0 -- -- 57
2019-07-28 23:00:00 23.8 8 Sudoeste 18 Sudoeste 0 -- -- 58
2019-07-28 22:00:00 24.9 10 Sudoeste 21 Sudoeste 0 -- -- 55
2019-07-28 21:00:00 24.9 9 Sudoeste 22 Sur 0 -- -- 51
2019-07-28 20:00:00 26.4 6 Sur 22 Sudoeste 0 -- -- 50
2019-07-28 19:00:00 26.5 8 Sur 29 Sudoeste 0 -- -- 49
2019-07-28 18:00:00 27.8 8 Sur 27 Sur 0 -- -- 47
2019-07-28 17:00:00 30.8 9 Sur 35 Sudoeste 0 -- -- 36
2019-07-28 16:00:00 31.1 4 Oeste 31 Sudoeste 0 -- -- 31
2019-07-28 15:00:00 30.6 3 Noroeste 28 Sudoeste 0 -- -- 32
2019-07-28 14:00:00 28.1 9 Noroeste 33 Noroeste 0 -- -- 37
2019-07-28 13:00:00 27.2 8 Oeste 31 Oeste 0 -- -- 39
2019-07-28 12:00:00 26.3 2 Sudoeste 45 Noroeste 0 -- -- 42
2019-07-28 11:00:00 23.5 4 Sudoeste 38 Noroeste 0 -- -- 45
2019-07-28 10:00:00 22 8 Norte 30 Noroeste 0 -- -- 49
2019-07-28 09:00:00 20.6 3 Noroeste 21 Sudoeste 0 -- -- 52
2019-07-28 08:00:00 19.5 6 Sur 19 Sudeste 0 -- -- 54
2019-07-28 07:00:00 18.8 7 Este 25 Este 0 -- -- 55
2019-07-28 06:00:00 19.1 7 Este 28 Nordeste 0 -- -- 54
2019-07-28 05:00:00 19.4 7 Sudeste 39 Sudoeste 0 -- -- 53
2019-07-28 04:00:00 19.8 7 Sudeste 53 Oeste 0 -- -- 52
2019-07-28 03:00:00 20.4 17 Noroeste 58 Noroeste 0 -- -- 51
2019-07-28 02:00:00 21.2 8 Oeste 49 Oeste 0 -- -- 50
2019-07-28 01:00:00 21.5 5 Oeste 52 Oeste 0 -- -- 49
2019-07-28 00:00:00 22.3 15 Sudoeste 46 Sudoeste 0 -- -- 49
2019-07-27 23:00:00 23.5 15 Oeste 48 Sudoeste 0 -- -- 48
2019-07-26 12:00:00 27.7 7 Este 16 Este 0 -- -- 69
2019-07-26 11:00:00 28.9 9 Este 18 Este 0 -- -- 63
2019-07-26 10:00:00 28 6 Este 14 Nordeste 0 -- -- 68
2019-07-26 09:00:00 26.2 6 Nordeste 14 Nordeste 0 -- -- 76
2019-07-26 08:00:00 25.4 5 Nordeste 12 Norte 0 -- -- 78
2019-07-26 07:00:00 23.6 5 Nordeste 9 Nordeste 0 -- -- 85
2019-07-26 06:00:00 23.9 4 Nordeste 7 Nordeste 0 -- -- 85
2019-07-26 05:00:00 24.1 2 Este 5 Nordeste 0 -- -- 84
2019-07-26 04:00:00 24.3 3 Nordeste 7 Nordeste 0 -- -- 84
2019-07-26 03:00:00 25.1 0 Calma 7 Norte 0 -- -- 80
2019-07-26 02:00:00 25.2 0 Calma 4 Nordeste 0 -- -- 76
2019-07-26 01:00:00 24.6 0 Calma 3 Nordeste 0 -- -- 76
2019-07-26 00:00:00 24.8 0 Calma 5 Nordeste 0 -- -- 74
2019-07-25 23:00:00 25 0 Calma 4 Nordeste 0 -- -- 76
2019-07-25 22:00:00 26 0 Calma 5 Sudeste 0 -- -- 74
2019-07-25 21:00:00 26.7 0 Calma 7 Este 0 -- -- 74
2019-07-25 20:00:00 27.5 3 Este 10 Este 0 -- -- 72
2019-07-25 19:00:00 28.6 5 Este 13 Sur 0 -- -- 66
2019-07-25 18:00:00 29.3 5 Sudeste 15 Este 0 -- -- 62
2019-07-25 17:00:00 29.9 5 Sudeste 15 Sudeste 0 -- -- 60
2019-07-25 16:00:00 30 6 Este 17 Este 0 -- -- 62
2019-07-25 15:00:00 30.3 7 Este 17 Este 0 -- -- 61
2019-07-25 14:00:00 30 9 Este 17 Este 0 -- -- 62
2019-07-25 13:00:00 29.2 8 Este 17 Este 0 -- -- 64
2019-07-25 12:00:00 28.5 6 Este 17 Este 0 -- -- 68
2019-07-25 11:00:00 27.8 8 Este 15 Este 0 -- -- 70
2019-07-25 10:00:00 27.2 6 Este 13 Este 0 -- -- 72
2019-07-25 09:00:00 26.5 5 Este 10 Este 0 -- -- 77
2019-07-25 08:00:00 24.3 4 Nordeste 9 Nordeste 0 -- -- 87
2019-07-25 07:00:00 22.8 6 Nordeste 9 Nordeste 0 -- -- 87
2019-07-25 06:00:00 22.9 5 Nordeste 8 Nordeste 0 -- -- 89
2019-07-25 05:00:00 23.4 5 Nordeste 8 Nordeste 0 -- -- 90
2019-07-25 04:00:00 24 4 Nordeste 9 Nordeste 0 -- -- 89
2019-07-25 03:00:00 24 4 Nordeste 9 Nordeste 0 -- -- 85
2019-07-25 02:00:00 24 5 Nordeste 8 Nordeste 0 -- -- 75
2019-07-25 01:00:00 24.2 5 Nordeste 9 Nordeste 0 -- -- 81
2019-07-25 00:00:00 24.6 4 Nordeste 9 Nordeste 0 -- -- 82
2019-07-24 23:00:00 24.9 5 Nordeste 7 Norte 0 -- -- 79
2019-07-24 22:00:00 26.1 2 Norte 7 Este 0 -- -- 80
2019-07-24 21:00:00 27.2 3 Este 11 Este 0 -- -- 71
2019-07-24 20:00:00 28.6 4 Este 12 Este 0 -- -- 65
2019-07-24 19:00:00 29 5 Sudeste 13 Este 0 -- -- 67
2019-07-24 18:00:00 29.7 7 Este 15 Este 0 -- -- 67
2019-07-24 17:00:00 30.2 7 Sudeste 15 Este 0 -- -- 64
2019-07-24 16:00:00 30 7 Este 17 Este 0 -- -- 63
2019-07-24 15:00:00 30 7 Este 17 Sudeste 0 -- -- 63
2019-07-24 14:00:00 29.7 8 Sudeste 16 Este 0 -- -- 63
2019-07-24 13:00:00 29.1 7 Sudeste 15 Sudeste 0 -- -- 67
2019-07-24 12:00:00 29.4 7 Sudeste 16 Este 0 -- -- 66
2019-07-24 11:00:00 28.2 6 Este 14 Este 0 -- -- 68
2019-07-24 10:00:00 27.1 5 Este 12 Este 0 -- -- 71
2019-07-24 09:00:00 26.1 6 Este 11 Este 0 -- -- 81
2019-07-24 08:00:00 24.7 0 Calma 6 Sudoeste 0 -- -- 80
2019-07-24 07:00:00 23.6 0 Calma 8 Noroeste 0 -- -- 74
2019-07-24 06:00:00 23.4 0 Calma 8 Noroeste 0 -- -- 75
2019-07-24 05:00:00 22.8 0 Calma 8 Nordeste 0 -- -- 67
2019-07-24 04:00:00 22.8 3 Nordeste 6 Nordeste 0 -- -- 74
2019-07-24 03:00:00 23.2 0 Calma 5 Norte 0 -- -- 65
2019-07-24 02:00:00 23.5 0 Calma 4 Nordeste 0 -- -- 62
2019-07-24 01:00:00 24.1 0 Calma 3 Nordeste 0 -- -- 62
2019-07-24 00:00:00 24.5 0 Calma 4 Nordeste 0 -- -- 64